createdAt,value
2018-08-09T00:01:39.482Z,24.94
2018-08-09T00:04:08.795Z,24.95
2018-08-09T00:06:38.150Z,24.80
2018-08-09T00:09:09.238Z,24.75
2018-08-09T00:11:38.724Z,24.69
2018-08-09T00:14:08.262Z,24.63
2018-08-09T00:16:37.567Z,24.80
2018-08-09T00:19:07.081Z,24.66
2018-08-09T00:21:36.403Z,24.55
2018-08-09T00:24:05.821Z,24.65
2018-08-09T00:26:35.105Z,24.70
2018-08-09T00:29:04.429Z,24.63
2018-08-09T00:31:33.943Z,24.68
2018-08-09T00:34:03.871Z,24.43
2018-08-09T00:36:33.505Z,24.53
2018-08-09T00:39:02.881Z,24.68
2018-08-09T00:41:32.147Z,24.56
2018-08-09T00:44:01.666Z,24.65
2018-08-09T00:46:30.952Z,24.69
2018-08-09T00:49:00.396Z,24.66
2018-08-09T00:51:29.657Z,24.52
2018-08-09T00:53:58.938Z,24.63
2018-08-09T00:56:28.243Z,24.52
2018-08-09T00:58:58.051Z,24.54
2018-08-09T01:01:27.432Z,24.33
2018-08-09T01:03:56.871Z,24.37
2018-08-09T01:06:26.221Z,24.35
2018-08-09T01:09:01.157Z,24.21
2018-08-09T01:11:30.444Z,24.32
2018-08-09T01:13:59.733Z,24.37
2018-08-09T01:16:29.024Z,24.38
2018-08-09T01:18:58.844Z,24.33
2018-08-09T01:21:28.173Z,24.32
2018-08-09T01:23:57.446Z,24.30
2018-08-09T01:26:26.742Z,24.30
2018-08-09T01:28:56.361Z,24.31
2018-08-09T01:31:33.490Z,24.27
2018-08-09T01:34:04.703Z,24.27
2018-08-09T01:36:34.675Z,24.29
2018-08-09T01:39:06.429Z,24.25
2018-08-09T01:41:35.724Z,24.12
2018-08-09T01:44:06.218Z,24.15
2018-08-09T01:46:35.507Z,24.12
2018-08-09T01:49:04.805Z,24.03
2018-08-09T01:51:34.070Z,24.01
2018-08-09T01:54:03.377Z,23.98
2018-08-09T01:56:32.918Z,23.85
2018-08-09T01:59:02.237Z,23.95
2018-08-09T02:01:31.558Z,23.94
2018-08-09T02:04:00.860Z,23.99
2018-08-09T02:06:30.101Z,23.88
2018-08-09T02:09:08.653Z,23.91
2018-08-09T02:11:37.898Z,23.82
2018-08-09T02:14:07.252Z,23.83
2018-08-09T02:16:37.081Z,23.83
2018-08-09T02:19:06.337Z,24.00
2018-08-09T02:21:35.718Z,23.85
2018-08-09T02:24:04.983Z,23.87
2018-08-09T02:26:34.430Z,23.93
2018-08-09T02:29:03.734Z,23.84
2018-08-09T02:31:33.066Z,23.80
2018-08-09T02:34:02.361Z,23.80
2018-08-09T02:36:31.628Z,23.83
2018-08-09T02:39:01.427Z,23.77
2018-08-09T02:41:30.685Z,23.74
2018-08-09T02:43:59.946Z,23.65
2018-08-09T02:46:29.218Z,23.77
2018-08-09T02:48:58.519Z,23.72
2018-08-09T02:51:28.215Z,23.71
2018-08-09T02:53:57.499Z,23.59
2018-08-09T02:56:26.785Z,23.59
2018-08-09T02:58:56.204Z,23.48
2018-08-09T03:01:25.641Z,23.30
2018-08-09T03:03:55.633Z,23.25
2018-08-09T03:06:24.906Z,23.22
2018-08-09T03:08:54.200Z,23.19
2018-08-09T03:11:24.189Z,23.05
2018-08-09T03:13:53.634Z,23.06
2018-08-09T03:16:22.974Z,23.04
2018-08-09T03:18:52.293Z,23.16
2018-08-09T03:21:21.620Z,23.36
2018-08-09T03:23:51.583Z,23.28
2018-08-09T03:26:20.849Z,23.31
2018-08-09T03:28:50.081Z,23.43
2018-08-09T03:31:19.356Z,23.58
2018-08-09T03:33:48.576Z,23.70
2018-08-09T03:36:17.934Z,23.59
2018-08-09T03:38:47.229Z,23.37
2018-08-09T03:41:16.528Z,23.66
2018-08-09T03:43:45.838Z,23.74
2018-08-09T03:46:15.252Z,23.85
2018-08-09T03:48:44.535Z,23.70
2018-08-09T03:51:13.889Z,23.82
2018-08-09T03:53:43.213Z,23.75
2018-08-09T03:56:12.695Z,23.64
2018-08-09T03:58:41.954Z,23.62
2018-08-09T04:01:11.234Z,23.54
2018-08-09T04:03:40.534Z,23.49
2018-08-09T04:06:09.794Z,23.48
2018-08-09T04:08:39.444Z,23.46
2018-08-09T04:11:08.846Z,23.29
2018-08-09T04:13:38.094Z,23.31
2018-08-09T04:16:07.392Z,23.43
2018-08-09T04:18:36.814Z,23.52
2018-08-09T04:21:06.124Z,23.63
2018-08-09T04:23:35.519Z,23.69
2018-08-09T04:26:04.807Z,23.72
2018-08-09T04:28:34.114Z,23.48
2018-08-09T04:31:03.815Z,23.75
2018-08-09T04:33:33.127Z,23.83
2018-08-09T04:36:02.408Z,23.92
2018-08-09T04:38:31.695Z,23.75
2018-08-09T04:41:00.934Z,23.92
2018-08-09T04:43:30.251Z,23.98
2018-08-09T04:46:00.327Z,24.06
2018-08-09T04:48:29.774Z,24.06
2018-08-09T04:50:59.054Z,23.73
2018-08-09T04:53:28.573Z,23.67
2018-08-09T04:55:58.006Z,23.81
2018-08-09T04:58:27.343Z,23.92
2018-08-09T05:00:56.684Z,24.06
2018-08-09T05:03:25.955Z,24.06
2018-08-09T05:05:55.236Z,24.01
2018-08-09T05:08:24.614Z,24.20
2018-08-09T05:10:53.878Z,24.36
2018-08-09T05:13:23.549Z,24.40
2018-08-09T05:15:53.177Z,24.52
2018-08-09T05:18:22.516Z,24.38
2018-08-09T05:20:51.851Z,24.31
2018-08-09T05:23:21.207Z,24.33
2018-08-09T05:25:50.501Z,24.43
2018-08-09T05:28:19.813Z,24.15
2018-08-09T05:30:49.101Z,24.42
2018-08-09T05:33:18.407Z,24.70
2018-08-09T05:35:47.658Z,24.80
2018-08-09T05:38:17.099Z,24.78
2018-08-09T05:40:46.628Z,24.86
2018-08-09T05:43:15.904Z,25.13
2018-08-09T05:45:45.267Z,25.10
2018-08-09T05:48:14.542Z,25.08
2018-08-09T05:50:47.368Z,25.04
2018-08-09T05:53:16.759Z,24.83
2018-08-09T05:55:46.201Z,24.53
2018-08-09T05:58:16.228Z,24.34
2018-08-09T06:00:45.519Z,24.72
2018-08-09T06:03:14.980Z,24.87
2018-08-09T06:05:45.409Z,24.85
2018-08-09T06:08:14.807Z,24.66
2018-08-09T06:10:44.142Z,24.91
2018-08-09T06:13:13.470Z,24.92
2018-08-09T06:15:42.777Z,25.16
2018-08-09T06:18:12.108Z,25.22
2018-08-09T06:20:41.752Z,25.51
2018-08-09T06:23:11.046Z,25.74
2018-08-09T06:25:40.348Z,25.04
2018-08-09T06:28:09.642Z,25.13
2018-08-09T06:30:39.050Z,25.47
2018-08-09T06:33:08.434Z,25.13
2018-08-09T06:35:37.752Z,25.12
2018-08-09T06:38:07.086Z,25.81
2018-08-09T06:40:36.417Z,26.38
2018-08-09T06:43:06.128Z,26.51
2018-08-09T06:45:35.415Z,26.20
2018-08-09T06:48:04.763Z,26.13
2018-08-09T06:50:34.086Z,26.15
2018-08-09T06:53:03.386Z,26.56
2018-08-09T06:55:32.665Z,26.71
2018-08-09T06:58:02.008Z,26.67
2018-08-09T07:00:31.336Z,26.03
2018-08-09T07:03:00.767Z,25.82
2018-08-09T07:05:30.387Z,26.36
2018-08-09T07:07:59.715Z,26.06
2018-08-09T07:10:29.254Z,26.11
2018-08-09T07:12:58.531Z,26.20
2018-08-09T07:15:27.777Z,26.12
2018-08-09T07:17:57.310Z,26.57
2018-08-09T07:20:26.730Z,27.21
2018-08-09T07:22:55.916Z,26.88
2018-08-09T07:25:25.210Z,26.75
2018-08-09T07:27:55.122Z,26.99
2018-08-09T07:30:24.629Z,26.75
2018-08-09T07:32:53.956Z,26.85
2018-08-09T07:35:23.321Z,26.90
2018-08-09T07:37:52.630Z,27.44
2018-08-09T07:40:21.953Z,27.67
2018-08-09T07:42:51.302Z,27.98
2018-08-09T07:45:20.710Z,27.99
2018-08-09T07:47:50.021Z,27.65
2018-08-09T07:50:19.787Z,27.61
2018-08-09T07:52:49.112Z,27.50
2018-08-09T07:55:18.417Z,27.74
2018-08-09T07:57:47.755Z,27.85
2018-08-09T08:00:17.151Z,28.13
2018-08-09T08:02:46.487Z,28.20
2018-08-09T08:05:15.913Z,28.78
2018-08-09T08:07:45.253Z,28.51
2018-08-09T08:10:14.572Z,28.61
2018-08-09T08:12:44.203Z,28.77
2018-08-09T08:15:13.538Z,29.38
2018-08-09T08:17:42.843Z,29.97
2018-08-09T08:20:12.144Z,30.13
2018-08-09T08:22:41.405Z,30.04
2018-08-09T08:25:10.657Z,29.66
2018-08-09T08:27:40.000Z,29.05
2018-08-09T08:30:13.129Z,30.04
2018-08-09T08:32:43.812Z,29.92
2018-08-09T08:35:13.253Z,29.58
2018-08-09T08:37:42.659Z,30.00
2018-08-09T08:40:12.122Z,30.70
2018-08-09T08:42:41.580Z,31.18
2018-08-09T08:45:13.462Z,31.11
2018-08-09T08:47:43.294Z,30.86
2018-08-09T08:50:13.174Z,30.78
2018-08-09T08:52:42.872Z,31.01
2018-08-09T08:55:12.865Z,31.55
2018-08-09T08:57:42.209Z,31.46
2018-08-09T09:00:13.292Z,31.12
2018-08-09T09:02:42.595Z,31.21
2018-08-09T09:05:13.318Z,31.88
2018-08-09T09:07:42.648Z,31.50
2018-08-09T09:10:14.127Z,31.99
2018-08-09T09:12:43.906Z,31.73
2018-08-09T09:15:15.344Z,31.87
2018-08-09T09:17:45.274Z,31.68
2018-08-09T09:20:15.930Z,32.65
2018-08-09T09:22:45.493Z,32.30
2018-08-09T09:25:15.249Z,31.61
2018-08-09T09:27:44.531Z,31.88
2018-08-09T09:30:16.294Z,31.78
2018-08-09T09:32:45.986Z,31.33
2018-08-09T09:35:15.360Z,31.59
2018-08-09T09:37:45.137Z,31.65
2018-08-09T09:40:14.451Z,32.11
2018-08-09T09:42:43.718Z,32.05
2018-08-09T09:45:13.349Z,32.08
2018-08-09T09:47:42.650Z,32.03
2018-08-09T09:50:12.564Z,32.37
2018-08-09T09:52:42.646Z,32.85
2018-08-09T09:55:11.946Z,32.64
2018-08-09T09:57:41.277Z,32.73
2018-08-09T10:00:15.969Z,32.96
2018-08-09T10:02:45.742Z,32.79
2018-08-09T10:05:15.481Z,33.28
2018-08-09T10:07:44.993Z,34.26
2018-08-09T10:10:14.318Z,34.26
2018-08-09T10:12:43.837Z,34.25
2018-08-09T10:15:13.733Z,33.57
2018-08-09T10:17:43.005Z,33.87
2018-08-09T10:20:13.546Z,34.20
2018-08-09T10:22:42.910Z,34.46
2018-08-09T10:25:12.415Z,33.95
2018-08-09T10:27:41.927Z,32.79
2018-08-09T10:30:12.027Z,33.25
2018-08-09T10:32:41.574Z,33.63
2018-08-09T10:35:10.919Z,34.31
2018-08-09T10:37:40.349Z,33.47
2018-08-09T10:40:09.770Z,33.77
2018-08-09T10:42:39.367Z,33.59
2018-08-09T10:45:08.737Z,33.41
2018-08-09T10:47:38.141Z,33.80
2018-08-09T10:50:07.471Z,33.82
2018-08-09T10:52:37.062Z,33.74
2018-08-09T10:55:07.099Z,34.47
2018-08-09T10:57:36.393Z,35.51
2018-08-09T11:00:09.557Z,35.47
2018-08-09T11:02:38.916Z,35.69
2018-08-09T11:05:09.236Z,36.41
2018-08-09T11:07:39.504Z,36.20
2018-08-09T11:10:10.080Z,36.08
2018-08-09T11:12:39.480Z,36.08
2018-08-09T11:15:11.785Z,35.80
2018-08-09T11:17:41.218Z,36.60
2018-08-09T11:20:10.762Z,37.10
2018-08-09T11:22:40.845Z,36.68
2018-08-09T11:25:10.515Z,35.40
2018-08-09T11:27:39.915Z,35.85
2018-08-09T11:30:09.293Z,35.99
2018-08-09T11:32:38.693Z,36.40
2018-08-09T11:35:08.032Z,36.60
2018-08-09T11:37:37.375Z,36.16
2018-08-09T11:40:06.819Z,36.29
2018-08-09T11:42:36.100Z,36.49
2018-08-09T11:45:06.592Z,36.53
2018-08-09T11:47:35.921Z,36.00
2018-08-09T11:50:05.639Z,36.26
2018-08-09T11:52:35.284Z,35.96
2018-08-09T11:55:05.569Z,35.70
2018-08-09T11:57:35.093Z,36.43
2018-08-09T12:00:07.040Z,36.29
2018-08-09T12:02:36.803Z,36.10
2018-08-09T12:05:06.215Z,35.59
2018-08-09T12:07:36.064Z,35.30
2018-08-09T12:10:05.669Z,35.69
2018-08-09T12:12:35.056Z,35.79
2018-08-09T12:15:05.488Z,36.29
2018-08-09T12:17:35.155Z,35.81
2018-08-09T12:20:05.129Z,36.00
2018-08-09T12:22:34.498Z,36.18
2018-08-09T12:25:04.536Z,36.19
2018-08-09T12:27:33.948Z,36.86
2018-08-09T12:30:03.700Z,36.67
2018-08-09T12:32:33.130Z,36.90
2018-08-09T12:35:02.641Z,36.93
2018-08-09T12:37:32.219Z,37.04
2018-08-09T12:40:02.132Z,37.10
2018-08-09T12:42:31.642Z,36.98
2018-08-09T12:45:01.911Z,36.82
2018-08-09T12:47:32.946Z,36.04
2018-08-09T12:50:02.693Z,35.31
2018-08-09T12:52:33.300Z,34.69
2018-08-09T12:55:03.012Z,34.52
2018-08-09T12:57:33.906Z,33.59
2018-08-09T13:00:03.385Z,33.95
2018-08-09T13:02:32.638Z,34.71
2018-08-09T13:05:03.109Z,34.84
2018-08-09T13:07:32.590Z,35.30
2018-08-09T13:10:01.930Z,35.15
2018-08-09T13:12:31.547Z,34.90
2018-08-09T13:15:00.873Z,35.56
2018-08-09T13:17:30.145Z,35.35
2018-08-09T13:19:59.480Z,34.94
2018-08-09T13:22:28.785Z,35.36
2018-08-09T13:24:58.142Z,35.47
2018-08-09T13:27:27.509Z,35.71
2018-08-09T13:29:56.883Z,35.52
2018-08-09T13:32:26.252Z,35.30
2018-08-09T13:34:55.791Z,34.67
2018-08-09T13:37:25.202Z,34.89
2018-08-09T13:39:54.572Z,34.84
2018-08-09T13:42:23.971Z,34.62
2018-08-09T13:44:53.324Z,34.81
2018-08-09T13:47:22.783Z,34.31
2018-08-09T13:49:52.200Z,33.74
2018-08-09T13:52:21.569Z,34.13
2018-08-09T13:54:51.047Z,34.41
2018-08-09T13:57:20.846Z,34.68
2018-08-09T13:59:50.149Z,34.61
2018-08-09T14:02:19.442Z,34.51
2018-08-09T14:04:48.766Z,34.63
2018-08-09T14:07:18.134Z,34.69
2018-08-09T14:09:47.420Z,34.61
2018-08-09T14:12:16.727Z,34.54
2018-08-09T14:14:46.047Z,34.76
2018-08-09T14:17:15.427Z,34.93
2018-08-09T14:19:44.874Z,34.97
2018-08-09T14:22:14.196Z,34.90
2018-08-09T14:24:43.550Z,34.63
2018-08-09T14:27:12.832Z,34.46
2018-08-09T14:29:42.152Z,34.57
2018-08-09T14:32:11.500Z,34.41
2018-08-09T14:34:40.908Z,34.04
2018-08-09T14:37:10.286Z,34.41
2018-08-09T14:39:39.609Z,34.47
2018-08-09T14:42:10.015Z,34.66
2018-08-09T14:44:39.365Z,34.93
2018-08-09T14:47:08.731Z,34.88
2018-08-09T14:49:38.138Z,34.34
2018-08-09T14:52:07.508Z,34.22
2018-08-09T14:54:36.976Z,33.94
2018-08-09T14:57:06.342Z,33.56
2018-08-09T14:59:35.753Z,33.98
2018-08-09T15:02:05.164Z,34.26
2018-08-09T15:04:35.051Z,34.17
2018-08-09T15:07:04.945Z,34.18
2018-08-09T15:09:34.276Z,33.80
2018-08-09T15:12:03.689Z,33.84
2018-08-09T15:14:33.039Z,33.69
2018-08-09T15:17:02.358Z,33.34
2018-08-09T15:19:31.759Z,33.54
2018-08-09T15:22:01.053Z,33.75
2018-08-09T15:24:31.401Z,33.88
2018-08-09T15:27:00.833Z,34.19
2018-08-09T15:29:30.258Z,33.87
2018-08-09T15:31:59.569Z,33.40
2018-08-09T15:34:28.935Z,33.65
2018-08-09T15:36:58.283Z,33.63
2018-08-09T15:39:27.675Z,33.70
2018-08-09T15:41:57.006Z,33.88
2018-08-09T15:44:26.392Z,33.82
2018-08-09T15:46:55.833Z,33.89
2018-08-09T15:49:25.659Z,33.87
2018-08-09T15:51:55.097Z,33.79
2018-08-09T15:54:24.406Z,33.73
2018-08-09T15:56:53.849Z,34.19
2018-08-09T15:59:23.231Z,34.16
2018-08-09T16:01:52.606Z,33.83
2018-08-09T16:04:22.027Z,33.95
2018-08-09T16:06:51.511Z,33.94
2018-08-09T16:09:20.848Z,34.05
2018-08-09T16:11:50.409Z,34.32
2018-08-09T16:14:19.806Z,34.28
2018-08-09T16:16:49.133Z,34.21
2018-08-09T16:19:18.485Z,33.88
2018-08-09T16:21:47.888Z,33.63
2018-08-09T16:24:17.266Z,33.52
2018-08-09T16:26:46.647Z,33.82
2018-08-09T16:29:16.050Z,34.00
2018-08-09T16:31:45.563Z,33.62
2018-08-09T16:34:16.412Z,33.55
2018-08-09T16:36:45.833Z,33.60
2018-08-09T16:39:15.430Z,33.45
2018-08-09T16:41:44.764Z,33.38
2018-08-09T16:44:14.115Z,33.50
2018-08-09T16:46:43.445Z,33.64
2018-08-09T16:49:12.811Z,33.45
2018-08-09T16:51:42.227Z,33.30
2018-08-09T16:54:11.688Z,33.46
2018-08-09T16:56:42.170Z,33.63
2018-08-09T16:59:11.758Z,33.75
2018-08-09T17:01:41.096Z,33.78
2018-08-09T17:04:10.487Z,33.81
2018-08-09T17:06:39.809Z,33.68
2018-08-09T17:09:13.866Z,33.30
2018-08-09T17:11:44.026Z,30.86
2018-08-09T17:14:15.381Z,29.58
2018-08-09T17:16:45.180Z,28.73
2018-08-09T17:19:14.449Z,27.74
2018-08-09T17:21:44.015Z,25.33
2018-08-09T17:24:13.434Z,22.98
2018-08-09T17:26:42.853Z,22.03
2018-08-09T17:29:12.246Z,21.29
2018-08-09T17:31:41.614Z,21.20
2018-08-09T17:34:10.922Z,21.43
2018-08-09T17:36:40.407Z,21.66
2018-08-09T17:39:12.317Z,21.81
2018-08-09T17:41:41.803Z,21.92
2018-08-09T17:44:12.383Z,22.25
2018-08-09T17:46:41.718Z,22.53
2018-08-09T17:49:11.034Z,22.67
2018-08-09T17:51:40.437Z,22.34
2018-08-09T17:54:09.826Z,22.07
2018-08-09T17:56:39.672Z,21.83
2018-08-09T17:59:09.009Z,21.81
2018-08-09T18:01:38.368Z,21.77
2018-08-09T18:04:07.806Z,21.78
2018-08-09T18:06:37.413Z,22.08
2018-08-09T18:09:10.316Z,22.26
2018-08-09T18:11:40.179Z,22.57
2018-08-09T18:14:09.563Z,22.66
2018-08-09T18:16:39.736Z,22.87
2018-08-09T18:19:09.126Z,23.14
2018-08-09T18:21:38.420Z,23.08
2018-08-09T18:24:07.937Z,23.00
2018-08-09T18:26:37.282Z,23.28
2018-08-09T18:29:06.634Z,23.48
2018-08-09T18:31:35.964Z,23.49
2018-08-09T18:34:05.701Z,23.24
2018-08-09T18:36:35.038Z,23.42
2018-08-09T18:39:07.313Z,23.28
2018-08-09T18:41:36.691Z,23.29
2018-08-09T18:44:06.016Z,23.29
2018-08-09T18:46:35.394Z,23.26
2018-08-09T18:49:04.688Z,23.37
2018-08-09T18:51:34.018Z,23.45
2018-08-09T18:54:03.324Z,23.49
2018-08-09T18:56:32.682Z,23.69
2018-08-09T18:59:01.995Z,23.71
2018-08-09T19:01:31.532Z,23.80
2018-08-09T19:04:00.942Z,23.84
2018-08-09T19:06:30.260Z,23.80
2018-08-09T19:08:59.651Z,23.72
2018-08-09T19:11:29.023Z,23.43
2018-08-09T19:13:58.570Z,23.47
2018-08-09T19:16:27.936Z,23.76
2018-08-09T19:18:57.357Z,23.56
2018-08-09T19:21:26.672Z,23.48
2018-08-09T19:23:56.586Z,23.37
2018-08-09T19:26:25.856Z,23.27
2018-08-09T19:28:55.237Z,23.17
2018-08-09T19:31:24.537Z,22.96
2018-08-09T19:33:54.099Z,22.96
2018-08-09T19:36:23.700Z,23.02
2018-08-09T19:38:53.000Z,22.93
2018-08-09T19:41:22.303Z,22.96
2018-08-09T19:43:51.673Z,23.06
2018-08-09T19:46:21.706Z,23.04
2018-08-09T19:48:51.085Z,23.05
2018-08-09T19:51:20.427Z,22.73
2018-08-09T19:53:49.787Z,22.84
2018-08-09T19:56:19.166Z,22.86
2018-08-09T19:58:48.515Z,22.95
2018-08-09T20:01:17.907Z,23.17
2018-08-09T20:03:52.644Z,23.02
2018-08-09T20:06:22.288Z,23.01
2018-08-09T20:08:51.941Z,23.00
2018-08-09T20:11:21.267Z,22.71
2018-08-09T20:13:50.627Z,22.99
2018-08-09T20:16:19.973Z,22.97
2018-08-09T20:18:49.239Z,22.88
2018-08-09T20:21:18.593Z,23.01
2018-08-09T20:23:47.922Z,22.95
2018-08-09T20:26:17.270Z,23.06
2018-08-09T20:28:46.883Z,23.32
2018-08-09T20:31:16.308Z,23.30
2018-08-09T20:33:45.650Z,23.43
2018-08-09T20:36:15.082Z,23.42
2018-08-09T20:38:44.381Z,23.32
2018-08-09T20:41:13.911Z,23.15
2018-08-09T20:43:43.237Z,23.35
2018-08-09T20:46:12.604Z,23.24
2018-08-09T20:48:41.917Z,23.20
2018-08-09T20:51:11.769Z,23.00
2018-08-09T20:53:41.111Z,23.08
2018-08-09T20:56:10.452Z,23.05
2018-08-09T20:58:40.061Z,23.01
2018-08-09T21:01:09.364Z,23.18
2018-08-09T21:03:38.816Z,23.07
2018-08-09T21:06:08.282Z,22.59
2018-08-09T21:08:44.192Z,22.58
2018-08-09T21:11:13.991Z,22.88
2018-08-09T21:13:43.362Z,22.88
2018-08-09T21:16:12.814Z,23.01
2018-08-09T21:18:42.317Z,23.14
2018-08-09T21:21:11.659Z,23.16
2018-08-09T21:23:40.945Z,23.10
2018-08-09T21:26:10.387Z,23.17
2018-08-09T21:28:39.669Z,22.72
2018-08-09T21:31:09.227Z,22.68
2018-08-09T21:33:38.795Z,22.63
2018-08-09T21:36:10.256Z,22.67
2018-08-09T21:38:39.575Z,22.51
2018-08-09T21:41:09.189Z,22.63
2018-08-09T21:43:38.438Z,22.70
2018-08-09T21:46:07.760Z,22.69
2018-08-09T21:48:37.023Z,22.82
2018-08-09T21:51:06.456Z,22.77
2018-08-09T21:53:36.351Z,22.54
2018-08-09T21:56:05.707Z,22.32
2018-08-09T21:58:35.032Z,22.18
2018-08-09T22:01:06.759Z,22.17
2018-08-09T22:03:38.088Z,22.31
2018-08-09T22:06:12.648Z,22.20
2018-08-09T22:08:47.188Z,22.16
2018-08-09T22:11:22.104Z,22.22
2018-08-09T22:13:56.752Z,22.37
2018-08-09T22:16:31.363Z,22.12
2018-08-09T22:19:05.887Z,22.28
2018-08-09T22:21:40.587Z,22.13
2018-08-09T22:24:09.865Z,22.12
2018-08-09T22:26:39.136Z,22.20
2018-08-09T22:29:08.775Z,22.31
2018-08-09T22:31:38.086Z,22.41
2018-08-09T22:34:07.323Z,22.36
2018-08-09T22:36:36.634Z,22.46
2018-08-09T22:39:09.082Z,22.24
2018-08-09T22:41:38.358Z,22.45
2018-08-09T22:44:07.807Z,22.33
2018-08-09T22:46:37.089Z,22.32
2018-08-09T22:49:06.885Z,22.22
2018-08-09T22:51:36.856Z,22.11
2018-08-09T22:54:07.111Z,22.17
2018-08-09T22:56:36.642Z,22.15
2018-08-09T22:59:06.021Z,22.19
2018-08-09T23:01:35.282Z,22.20
2018-08-09T23:04:04.572Z,22.20
2018-08-09T23:06:33.910Z,22.15
2018-08-09T23:09:03.372Z,22.13
2018-08-09T23:11:33.234Z,22.18
2018-08-09T23:14:02.517Z,22.19
2018-08-09T23:16:31.831Z,22.07
2018-08-09T23:19:01.158Z,22.07
2018-08-09T23:21:31.941Z,21.99
2018-08-09T23:24:01.472Z,22.11
2018-08-09T23:26:30.797Z,22.01
2018-08-09T23:29:00.134Z,21.81
2018-08-09T23:31:30.215Z,21.84
2018-08-09T23:33:59.528Z,21.81
2018-08-09T23:36:28.992Z,21.86
2018-08-09T23:38:58.453Z,21.76
2018-08-09T23:41:28.136Z,21.58
2018-08-09T23:43:57.375Z,21.72
2018-08-09T23:46:26.780Z,21.58
2018-08-09T23:48:56.054Z,21.82
2018-08-09T23:51:25.296Z,21.96
2018-08-09T23:53:54.662Z,21.65
2018-08-09T23:56:23.930Z,21.71
2018-08-09T23:58:53.375Z,21.51
